sensor_id;sensor_type;location;lat;lon;timestamp;P1;durP1;ratioP1;P2;durP2;ratioP2
58770;SDS011;44539;42.962;1.596;2022-08-19T06:24:41;4.05;;;3.25;;
58770;SDS011;44539;42.962;1.596;2022-08-19T06:27:07;5.35;;;3.28;;
58770;SDS011;44539;42.962;1.596;2022-08-19T06:29:33;5.53;;;3.28;;
58770;SDS011;44539;42.962;1.596;2022-08-19T06:32:00;6.30;;;3.47;;
58770;SDS011;44539;42.962;1.596;2022-08-19T06:34:28;5.13;;;3.00;;
58770;SDS011;44539;42.962;1.596;2022-08-19T06:36:56;5.70;;;3.63;;
58770;SDS011;44539;42.962;1.596;2022-08-19T06:39:25;5.03;;;3.17;;
58770;SDS011;44539;42.962;1.596;2022-08-19T06:41:53;6.68;;;2.95;;
58770;SDS011;44539;42.962;1.596;2022-08-19T06:44:21;5.38;;;3.10;;
58770;SDS011;44539;42.962;1.596;2022-08-19T06:46:48;7.25;;;3.40;;
58770;SDS011;44539;42.962;1.596;2022-08-19T06:49:14;5.25;;;3.30;;
58770;SDS011;44539;42.962;1.596;2022-08-19T06:51:42;9.00;;;3.40;;
58770;SDS011;44539;42.962;1.596;2022-08-19T06:54:09;5.07;;;3.03;;
58770;SDS011;44539;42.962;1.596;2022-08-19T06:56:35;5.68;;;2.88;;
58770;SDS011;44539;42.962;1.596;2022-08-19T06:59:03;7.15;;;3.42;;
58770;SDS011;44539;42.962;1.596;2022-08-19T07:04:02;6.68;;;3.38;;
58770;SDS011;44539;42.962;1.596;2022-08-19T07:06:29;5.20;;;2.88;;
58770;SDS011;44539;42.962;1.596;2022-08-19T07:08:56;3.83;;;2.65;;
58770;SDS011;44539;42.962;1.596;2022-08-19T07:11:23;3.15;;;2.35;;
58770;SDS011;44539;42.962;1.596;2022-08-19T07:13:48;4.55;;;3.08;;
58770;SDS011;44539;42.962;1.596;2022-08-19T07:16:16;5.40;;;2.80;;
58770;SDS011;44539;42.962;1.596;2022-08-19T07:18:47;4.50;;;2.78;;
58770;SDS011;44539;42.962;1.596;2022-08-19T07:21:14;5.13;;;2.50;;
58770;SDS011;44539;42.962;1.596;2022-08-19T07:23:42;5.43;;;2.28;;
58770;SDS011;44539;42.962;1.596;2022-08-19T07:26:19;5.95;;;2.42;;
58770;SDS011;44539;42.962;1.596;2022-08-19T07:28:49;4.85;;;2.70;;
58770;SDS011;44539;42.962;1.596;2022-08-19T07:31:17;7.07;;;2.75;;
58770;SDS011;44539;42.962;1.596;2022-08-19T07:33:44;6.75;;;2.40;;
58770;SDS011;44539;42.962;1.596;2022-08-19T07:36:12;3.08;;;1.80;;
58770;SDS011;44539;42.962;1.596;2022-08-19T07:38:40;4.93;;;2.08;;
58770;SDS011;44539;42.962;1.596;2022-08-19T07:41:08;5.22;;;2.47;;
58770;SDS011;44539;42.962;1.596;2022-08-19T07:43:36;4.32;;;2.00;;
58770;SDS011;44539;42.962;1.596;2022-08-19T07:46:02;2.63;;;1.70;;
58770;SDS011;44539;42.962;1.596;2022-08-19T07:48:28;4.72;;;1.35;;
58770;SDS011;44539;42.962;1.596;2022-08-19T07:50:54;2.45;;;1.40;;
58770;SDS011;44539;42.962;1.596;2022-08-19T07:53:22;2.00;;;1.02;;
58770;SDS011;44539;42.962;1.596;2022-08-19T07:55:48;2.83;;;1.42;;
58770;SDS011;44539;42.962;1.596;2022-08-19T07:58:14;1.60;;;1.00;;
58770;SDS011;44539;42.962;1.596;2022-08-19T08:00:45;2.10;;;0.90;;
58770;SDS011;44539;42.962;1.596;2022-08-19T08:03:13;1.30;;;0.70;;
58770;SDS011;44539;42.962;1.596;2022-08-19T08:05:40;1.30;;;0.85;;
58770;SDS011;44539;42.962;1.596;2022-08-19T08:11:10;1.33;;;0.80;;
58770;SDS011;44539;42.962;1.596;2022-08-19T08:13:36;1.25;;;0.90;;
58770;SDS011;44539;42.962;1.596;2022-08-19T08:16:01;1.13;;;0.82;;
58770;SDS011;44539;42.962;1.596;2022-08-19T08:18:27;2.47;;;1.00;;
58770;SDS011;44539;42.962;1.596;2022-08-19T08:20:56;1.13;;;0.70;;
58770;SDS011;44539;42.962;1.596;2022-08-19T08:23:23;1.45;;;0.63;;
58770;SDS011;44539;42.962;1.596;2022-08-19T08:25:50;0.93;;;0.50;;
58770;SDS011;44539;42.962;1.596;2022-08-19T08:28:17;1.33;;;0.80;;
58770;SDS011;44539;42.962;1.596;2022-08-19T08:30:44;1.67;;;0.80;;
58770;SDS011;44539;42.962;1.596;2022-08-19T08:33:10;2.65;;;1.00;;
58770;SDS011;44539;42.962;1.596;2022-08-19T08:35:36;2.35;;;0.93;;
58770;SDS011;44539;42.962;1.596;2022-08-19T08:38:02;2.33;;;1.15;;
58770;SDS011;44539;42.962;1.596;2022-08-19T08:45:36;1.60;;;1.10;;
58770;SDS011;44539;42.962;1.596;2022-08-19T08:48:21;1.80;;;1.10;;
58770;SDS011;44539;42.962;1.596;2022-08-19T08:50:59;3.17;;;1.30;;
58770;SDS011;44539;42.962;1.596;2022-08-19T08:53:28;3.15;;;1.10;;
58770;SDS011;44539;42.962;1.596;2022-08-19T08:55:56;2.22;;;1.20;;
58770;SDS011;44539;42.962;1.596;2022-08-19T08:58:26;3.10;;;1.30;;
58770;SDS011;44539;42.962;1.596;2022-08-19T09:00:56;3.22;;;1.60;;
58770;SDS011;44539;42.962;1.596;2022-08-19T09:03:23;2.58;;;1.50;;
58770;SDS011;44539;42.962;1.596;2022-08-19T09:06:04;2.88;;;1.10;;
58770;SDS011;44539;42.962;1.596;2022-08-19T09:08:40;2.78;;;1.17;;
58770;SDS011;44539;42.962;1.596;2022-08-19T09:12:00;5.03;;;1.35;;
58770;SDS011;44539;42.962;1.596;2022-08-19T09:14:32;1.90;;;1.20;;
58770;SDS011;44539;42.962;1.596;2022-08-19T09:16:58;5.10;;;1.50;;
58770;SDS011;44539;42.962;1.596;2022-08-19T09:19:24;3.47;;;1.52;;
58770;SDS011;44539;42.962;1.596;2022-08-19T09:21:50;4.05;;;1.70;;
58770;SDS011;44539;42.962;1.596;2022-08-19T09:24:15;3.65;;;1.60;;
58770;SDS011;44539;42.962;1.596;2022-08-19T09:26:41;3.70;;;1.45;;
58770;SDS011;44539;42.962;1.596;2022-08-19T09:29:08;2.53;;;1.23;;
58770;SDS011;44539;42.962;1.596;2022-08-19T09:31:34;2.25;;;1.20;;
58770;SDS011;44539;42.962;1.596;2022-08-19T09:34:00;3.85;;;1.27;;
58770;SDS011;44539;42.962;1.596;2022-08-19T09:36:28;2.83;;;1.17;;
58770;SDS011;44539;42.962;1.596;2022-08-19T09:38:55;4.50;;;1.20;;
58770;SDS011;44539;42.962;1.596;2022-08-19T09:41:21;1.55;;;1.20;;
58770;SDS011;44539;42.962;1.596;2022-08-19T09:43:49;1.58;;;0.98;;
58770;SDS011;44539;42.962;1.596;2022-08-19T09:46:21;2.10;;;1.00;;
58770;SDS011;44539;42.962;1.596;2022-08-19T09:48:48;4.53;;;1.13;;
58770;SDS011;44539;42.962;1.596;2022-08-19T09:51:16;2.10;;;1.13;;
58770;SDS011;44539;42.962;1.596;2022-08-19T09:53:47;1.70;;;0.77;;
58770;SDS011;44539;42.962;1.596;2022-08-19T09:56:15;1.70;;;0.95;;
58770;SDS011;44539;42.962;1.596;2022-08-19T09:58:43;4.32;;;1.30;;
58770;SDS011;44539;42.962;1.596;2022-08-19T10:01:09;1.77;;;1.00;;
58770;SDS011;44539;42.962;1.596;2022-08-19T10:03:35;2.50;;;1.00;;
58770;SDS011;44539;42.962;1.596;2022-08-19T10:06:03;3.30;;;1.60;;
58770;SDS011;44539;42.962;1.596;2022-08-19T10:08:31;2.92;;;1.10;;
58770;SDS011;44539;42.962;1.596;2022-08-19T10:10:59;2.13;;;1.00;;
58770;SDS011;44539;42.962;1.596;2022-08-19T10:13:27;2.92;;;1.20;;
58770;SDS011;44539;42.962;1.596;2022-08-19T10:15:55;3.25;;;1.00;;
58770;SDS011;44539;42.962;1.596;2022-08-19T10:18:21;1.15;;;0.70;;
58770;SDS011;44539;42.962;1.596;2022-08-19T10:20:50;2.20;;;0.70;;
58770;SDS011;44539;42.962;1.596;2022-08-19T10:23:16;1.05;;;0.70;;
58770;SDS011;44539;42.962;1.596;2022-08-19T10:25:42;1.10;;;0.80;;
58770;SDS011;44539;42.962;1.596;2022-08-19T10:28:08;1.52;;;0.90;;
58770;SDS011;44539;42.962;1.596;2022-08-19T10:30:37;1.00;;;0.70;;
58770;SDS011;44539;42.962;1.596;2022-08-19T10:33:03;1.73;;;0.70;;
58770;SDS011;44539;42.962;1.596;2022-08-19T10:35:29;1.15;;;0.70;;
58770;SDS011;44539;42.962;1.596;2022-08-19T10:37:55;1.00;;;0.73;;
58770;SDS011;44539;42.962;1.596;2022-08-19T10:40:24;1.20;;;0.73;;
58770;SDS011;44539;42.962;1.596;2022-08-19T10:42:52;0.90;;;0.60;;
58770;SDS011;44539;42.962;1.596;2022-08-19T10:45:18;1.00;;;0.60;;
58770;SDS011;44539;42.962;1.596;2022-08-19T10:47:43;1.10;;;0.70;;
58770;SDS011;44539;42.962;1.596;2022-08-19T10:50:09;1.38;;;0.80;;
58770;SDS011;44539;42.962;1.596;2022-08-19T10:52:53;1.65;;;0.90;;
58770;SDS011;44539;42.962;1.596;2022-08-19T10:55:21;1.80;;;0.80;;
58770;SDS011;44539;42.962;1.596;2022-08-19T10:58:15;1.67;;;1.02;;
58770;SDS011;44539;42.962;1.596;2022-08-19T11:00:42;1.92;;;0.93;;
58770;SDS011;44539;42.962;1.596;2022-08-19T11:03:08;1.52;;;0.90;;
58770;SDS011;44539;42.962;1.596;2022-08-19T11:05:34;1.42;;;1.00;;
58770;SDS011;44539;42.962;1.596;2022-08-19T11:08:02;1.90;;;0.80;;
58770;SDS011;44539;42.962;1.596;2022-08-19T11:10:28;2.25;;;0.70;;
58770;SDS011;44539;42.962;1.596;2022-08-19T11:12:53;2.55;;;0.75;;
58770;SDS011;44539;42.962;1.596;2022-08-19T11:15:19;1.73;;;0.80;;
58770;SDS011;44539;42.962;1.596;2022-08-19T11:17:44;2.13;;;0.70;;
58770;SDS011;44539;42.962;1.596;2022-08-19T11:20:10;2.05;;;1.10;;
58770;SDS011;44539;42.962;1.596;2022-08-19T11:22:37;1.45;;;0.70;;
58770;SDS011;44539;42.962;1.596;2022-08-19T11:25:03;1.15;;;0.70;;
58770;SDS011;44539;42.962;1.596;2022-08-19T11:27:29;1.02;;;0.73;;
58770;SDS011;44539;42.962;1.596;2022-08-19T11:29:55;1.00;;;0.77;;
58770;SDS011;44539;42.962;1.596;2022-08-19T11:32:20;1.75;;;0.95;;
58770;SDS011;44539;42.962;1.596;2022-08-19T11:34:46;2.05;;;0.85;;
58770;SDS011;44539;42.962;1.596;2022-08-19T11:37:11;0.80;;;0.60;;
58770;SDS011;44539;42.962;1.596;2022-08-19T11:39:37;1.38;;;0.90;;
58770;SDS011;44539;42.962;1.596;2022-08-19T11:42:03;3.05;;;1.33;;
58770;SDS011;44539;42.962;1.596;2022-08-19T11:44:49;0.90;;;0.60;;
58770;SDS011;44539;42.962;1.596;2022-08-19T11:47:15;1.40;;;0.70;;
58770;SDS011;44539;42.962;1.596;2022-08-19T11:49:40;0.93;;;0.70;;
58770;SDS011;44539;42.962;1.596;2022-08-19T11:52:07;1.70;;;0.80;;
58770;SDS011;44539;42.962;1.596;2022-08-19T11:54:32;1.58;;;0.75;;
58770;SDS011;44539;42.962;1.596;2022-08-19T11:56:58;1.20;;;0.80;;
58770;SDS011;44539;42.962;1.596;2022-08-19T11:59:24;1.15;;;0.75;;
58770;SDS011;44539;42.962;1.596;2022-08-19T12:01:51;1.02;;;0.70;;
58770;SDS011;44539;42.962;1.596;2022-08-19T12:04:17;3.00;;;0.90;;
58770;SDS011;44539;42.962;1.596;2022-08-19T12:06:42;3.05;;;0.93;;
58770;SDS011;44539;42.962;1.596;2022-08-19T12:09:08;1.58;;;0.90;;
58770;SDS011;44539;42.962;1.596;2022-08-19T12:11:35;1.45;;;0.88;;
58770;SDS011;44539;42.962;1.596;2022-08-19T12:14:01;1.40;;;0.82;;
58770;SDS011;44539;42.962;1.596;2022-08-19T12:16:28;1.42;;;0.80;;
58770;SDS011;44539;42.962;1.596;2022-08-19T12:18:55;1.30;;;0.80;;
58770;SDS011;44539;42.962;1.596;2022-08-19T12:21:23;6.30;;;1.20;;
58770;SDS011;44539;42.962;1.596;2022-08-19T12:23:53;1.40;;;0.82;;
58770;SDS011;44539;42.962;1.596;2022-08-19T12:26:21;1.55;;;0.88;;
58770;SDS011;44539;42.962;1.596;2022-08-19T12:28:47;2.53;;;0.90;;
58770;SDS011;44539;42.962;1.596;2022-08-19T12:31:13;1.95;;;0.70;;
58770;SDS011;44539;42.962;1.596;2022-08-19T12:33:39;2.22;;;0.90;;
58770;SDS011;44539;42.962;1.596;2022-08-19T12:36:06;1.40;;;0.90;;
58770;SDS011;44539;42.962;1.596;2022-08-19T12:38:34;2.58;;;0.88;;
58770;SDS011;44539;42.962;1.596;2022-08-19T12:41:02;2.25;;;0.80;;
58770;SDS011;44539;42.962;1.596;2022-08-19T12:43:31;1.20;;;0.80;;
58770;SDS011;44539;42.962;1.596;2022-08-19T12:45:56;3.53;;;0.95;;
58770;SDS011;44539;42.962;1.596;2022-08-19T12:48:22;3.72;;;1.13;;
58770;SDS011;44539;42.962;1.596;2022-08-19T12:50:47;2.47;;;1.10;;
58770;SDS011;44539;42.962;1.596;2022-08-19T12:53:13;1.73;;;1.10;;
58770;SDS011;44539;42.962;1.596;2022-08-19T12:55:39;2.13;;;1.10;;
58770;SDS011;44539;42.962;1.596;2022-08-19T12:58:05;4.28;;;1.10;;
58770;SDS011;44539;42.962;1.596;2022-08-19T13:00:30;3.35;;;1.10;;
58770;SDS011;44539;42.962;1.596;2022-08-19T13:02:58;1.60;;;0.80;;
58770;SDS011;44539;42.962;1.596;2022-08-19T13:05:25;2.40;;;0.88;;
58770;SDS011;44539;42.962;1.596;2022-08-19T13:07:54;2.03;;;0.70;;
58770;SDS011;44539;42.962;1.596;2022-08-19T13:10:21;2.10;;;0.90;;
58770;SDS011;44539;42.962;1.596;2022-08-19T13:12:48;2.85;;;1.10;;
58770;SDS011;44539;42.962;1.596;2022-08-19T13:15:16;1.38;;;1.00;;
58770;SDS011;44539;42.962;1.596;2022-08-19T13:17:45;1.73;;;0.88;;
58770;SDS011;44539;42.962;1.596;2022-08-19T13:20:14;5.03;;;1.38;;
58770;SDS011;44539;42.962;1.596;2022-08-19T13:22:41;3.95;;;1.30;;
58770;SDS011;44539;42.962;1.596;2022-08-19T13:25:07;2.20;;;1.20;;
58770;SDS011;44539;42.962;1.596;2022-08-19T13:27:33;5.82;;;1.05;;
58770;SDS011;44539;42.962;1.596;2022-08-19T13:30:00;7.82;;;1.77;;
58770;SDS011;44539;42.962;1.596;2022-08-19T13:32:45;3.28;;;1.00;;
58770;SDS011;44539;42.962;1.596;2022-08-19T13:35:29;1.88;;;1.10;;
58770;SDS011;44539;42.962;1.596;2022-08-19T13:37:54;3.95;;;1.20;;
58770;SDS011;44539;42.962;1.596;2022-08-19T13:40:22;1.20;;;0.82;;
58770;SDS011;44539;42.962;1.596;2022-08-19T13:42:49;0.93;;;0.70;;
58770;SDS011;44539;42.962;1.596;2022-08-19T13:45:18;3.58;;;1.00;;
58770;SDS011;44539;42.962;1.596;2022-08-19T13:47:46;2.22;;;0.75;;
58770;SDS011;44539;42.962;1.596;2022-08-19T13:50:13;1.60;;;1.00;;
58770;SDS011;44539;42.962;1.596;2022-08-19T13:52:42;2.00;;;1.00;;
58770;SDS011;44539;42.962;1.596;2022-08-19T13:55:08;1.90;;;0.93;;
58770;SDS011;44539;42.962;1.596;2022-08-19T13:57:35;1.83;;;0.90;;
58770;SDS011;44539;42.962;1.596;2022-08-19T14:00:04;2.88;;;1.17;;
58770;SDS011;44539;42.962;1.596;2022-08-19T14:02:35;3.22;;;1.10;;
58770;SDS011;44539;42.962;1.596;2022-08-19T14:05:03;2.53;;;0.98;;
58770;SDS011;44539;42.962;1.596;2022-08-19T14:07:29;3.25;;;0.90;;
58770;SDS011;44539;42.962;1.596;2022-08-19T14:09:55;2.22;;;0.90;;
58770;SDS011;44539;42.962;1.596;2022-08-19T14:12:21;2.97;;;1.65;;
58770;SDS011;44539;42.962;1.596;2022-08-19T14:14:46;1.33;;;0.75;;
58770;SDS011;44539;42.962;1.596;2022-08-19T14:17:12;1.48;;;0.93;;
58770;SDS011;44539;42.962;1.596;2022-08-19T14:19:37;2.00;;;1.00;;
58770;SDS011;44539;42.962;1.596;2022-08-19T14:22:03;1.40;;;0.80;;
58770;SDS011;44539;42.962;1.596;2022-08-19T14:24:29;1.83;;;0.80;;
58770;SDS011;44539;42.962;1.596;2022-08-19T14:26:54;2.47;;;1.00;;
58770;SDS011;44539;42.962;1.596;2022-08-19T14:29:20;4.32;;;0.98;;
58770;SDS011;44539;42.962;1.596;2022-08-19T14:31:45;14.45;;;5.25;;
58770;SDS011;44539;42.962;1.596;2022-08-19T14:34:11;2.53;;;1.00;;
58770;SDS011;44539;42.962;1.596;2022-08-19T14:36:37;2.65;;;0.90;;
58770;SDS011;44539;42.962;1.596;2022-08-19T14:39:03;5.32;;;1.17;;
58770;SDS011;44539;42.962;1.596;2022-08-19T14:41:29;2.15;;;1.00;;
58770;SDS011;44539;42.962;1.596;2022-08-19T14:43:55;5.15;;;1.10;;
58770;SDS011;44539;42.962;1.596;2022-08-19T14:46:22;1.42;;;0.90;;
58770;SDS011;44539;42.962;1.596;2022-08-19T14:48:50;2.10;;;0.70;;
58770;SDS011;44539;42.962;1.596;2022-08-19T14:51:16;2.60;;;0.80;;
58770;SDS011;44539;42.962;1.596;2022-08-19T14:53:44;1.25;;;0.88;;
58770;SDS011;44539;42.962;1.596;2022-08-19T14:56:11;3.35;;;0.80;;
58770;SDS011;44539;42.962;1.596;2022-08-19T14:58:38;1.80;;;0.93;;
58770;SDS011;44539;42.962;1.596;2022-08-19T15:01:05;2.25;;;0.90;;
58770;SDS011;44539;42.962;1.596;2022-08-19T15:03:31;2.35;;;0.85;;
58770;SDS011;44539;42.962;1.596;2022-08-19T15:05:58;1.35;;;0.80;;
58770;SDS011;44539;42.962;1.596;2022-08-19T15:08:25;3.75;;;1.00;;
58770;SDS011;44539;42.962;1.596;2022-08-19T15:10:52;2.38;;;0.90;;
58770;SDS011;44539;42.962;1.596;2022-08-19T15:13:18;1.42;;;0.80;;
58770;SDS011;44539;42.962;1.596;2022-08-19T15:15:43;1.40;;;0.70;;
58770;SDS011;44539;42.962;1.596;2022-08-19T15:18:10;2.92;;;0.93;;
58770;SDS011;44539;42.962;1.596;2022-08-19T15:20:37;1.10;;;0.80;;
58770;SDS011;44539;42.962;1.596;2022-08-19T15:23:03;1.38;;;0.90;;
58770;SDS011;44539;42.962;1.596;2022-08-19T15:25:30;1.77;;;0.80;;
58770;SDS011;44539;42.962;1.596;2022-08-19T15:27:57;1.40;;;0.90;;
58770;SDS011;44539;42.962;1.596;2022-08-19T15:30:23;1.17;;;0.80;;
58770;SDS011;44539;42.962;1.596;2022-08-19T15:32:52;1.60;;;1.00;;
58770;SDS011;44539;42.962;1.596;2022-08-19T15:35:19;2.22;;;0.80;;
58770;SDS011;44539;42.962;1.596;2022-08-19T15:37:53;2.30;;;0.90;;
58770;SDS011;44539;42.962;1.596;2022-08-19T15:40:20;3.20;;;1.60;;
58770;SDS011;44539;42.962;1.596;2022-08-19T15:42:46;1.50;;;1.10;;
58770;SDS011;44539;42.962;1.596;2022-08-19T15:45:14;1.42;;;1.05;;
58770;SDS011;44539;42.962;1.596;2022-08-19T15:47:41;2.15;;;1.20;;
58770;SDS011;44539;42.962;1.596;2022-08-19T15:52:34;4.03;;;1.30;;
58770;SDS011;44539;42.962;1.596;2022-08-19T15:55:00;2.67;;;1.10;;
58770;SDS011;44539;42.962;1.596;2022-08-19T15:57:27;1.70;;;1.00;;
58770;SDS011;44539;42.962;1.596;2022-08-19T15:59:53;1.80;;;1.00;;
58770;SDS011;44539;42.962;1.596;2022-08-19T16:02:37;1.92;;;1.05;;
58770;SDS011;44539;42.962;1.596;2022-08-19T16:05:24;2.25;;;0.98;;
58770;SDS011;44539;42.962;1.596;2022-08-19T16:08:09;2.03;;;1.17;;
58770;SDS011;44539;42.962;1.596;2022-08-19T16:10:36;1.88;;;1.00;;
58770;SDS011;44539;42.962;1.596;2022-08-19T16:13:02;1.40;;;1.00;;
58770;SDS011;44539;42.962;1.596;2022-08-19T16:15:30;1.45;;;1.00;;
58770;SDS011;44539;42.962;1.596;2022-08-19T16:17:56;1.65;;;1.00;;
